Time;durP1;ratioP1;P1;durP2;ratioP2;P2;SDS_P1;SDS_P2;PMS_P1;PMS_P2;Temp;Humidity;BMP_temperature;BMP_pressure;BME280_temperature;BME280_humidity;BME280_pressure;Samples;Min_cycle;Max_cycle;Signal;HPM_P1;HPM_P2
2023/02/18 00:01:37;;;;;;;17.42;13.93;;;;;;;12.99;71.02;100853.75;4999104;28;20066;-61
2023/02/18 00:04:06;;;;;;;17.38;14.40;;;;;;;12.99;70.38;100853.75;4994495;28;20061;-61
2023/02/18 00:06:35;;;;;;;19.52;15.00;;;;;;;12.99;70.65;100853.75;4996463;28;20054;-61
2023/02/18 00:09:05;;;;;;;17.52;15.23;;;;;;;12.93;71.34;100843.03;4999280;28;20050;-60
2023/02/18 00:11:34;;;;;;;17.90;14.80;;;;;;;12.98;71.44;100852.13;4998891;28;20411;-61
2023/02/18 00:14:02;;;;;;;;;;;;;;;12.92;70.59;100861.81;4993045;28;20483;-60
2023/02/18 00:16:30;;;;;;;18.75;15.25;;;;;;;12.91;71.16;100846.16;4988929;28;19933;-62
2023/02/18 00:18:59;;;;;;;17.77;15.60;;;;;;;12.93;70.67;100863.44;4988826;28;20050;-60
2023/02/18 00:21:31;;;;;;;19.02;15.15;;;;;;;12.88;71.73;100852.41;4995744;28;20046;-61
2023/02/18 00:24:02;;;;;;;17.63;14.98;;;;;;;12.94;71.60;100856.72;4993842;28;20073;-60
2023/02/18 00:26:29;;;;;;;17.73;15.07;;;;;;;12.81;72.46;100860.44;4986167;28;20422;-60
2023/02/18 00:28:56;;;;;;;20.08;14.98;;;;;;;12.89;71.69;100858.81;4976078;28;20415;-61
2023/02/18 00:31:26;;;;;;;17.52;15.02;;;;;;;12.93;72.03;100857.03;4976200;28;20050;-60
2023/02/18 00:33:54;;;;;;;16.20;13.98;;;;;;;12.91;72.25;100851.75;4975956;28;20059;-61
2023/02/18 00:36:24;;;;;;;15.05;13.27;;;;;;;12.99;71.71;100848.16;4986611;28;20054;-60
2023/02/18 00:38:55;;;;;;;17.42;13.63;;;;;;;12.99;71.68;100858.53;4987036;28;20054;-60
2023/02/18 00:41:24;;;;;;;19.13;14.93;;;;;;;12.84;71.66;100851.38;4987188;28;20384;-60
2023/02/18 00:43:51;;;;;;;17.08;14.45;;;;;;;12.89;71.69;100842.88;4985574;28;20062;-60
2023/02/18 00:46:18;;;;;;;18.05;14.68;;;;;;;12.83;72.17;100832.97;4988911;28;20063;-60
2023/02/18 00:48:46;;;;;;;17.25;13.85;;;;;;;12.77;73.00;100823.09;4991098;28;20061;-60
2023/02/18 00:51:14;;;;;;;17.00;13.43;;;;;;;12.83;72.81;100818.16;4995142;28;20479;-61
2023/02/18 00:53:41;;;;;;;16.77;14.98;;;;;;;12.81;72.67;100824.09;4995500;28;20472;-60
2023/02/18 00:56:10;;;;;;;16.27;14.30;;;;;;;12.85;72.47;100813.06;4995483;28;20058;-60
2023/02/18 00:58:37;;;;;;;18.15;14.00;;;;;;;12.88;72.36;100821.66;4991129;28;20507;-60
2023/02/18 01:01:10;;;;;;;15.68;13.98;;;;;;;12.86;72.78;100809.97;4986461;28;20058;-61
2023/02/18 01:03:39;;;;;;;17.65;14.00;;;;;;;12.86;72.84;100815.56;4991613;28;20058;-61
2023/02/18 01:06:07;;;;;;;16.35;13.60;;;;;;;12.89;73.49;100831.69;4994985;28;20050;-61
2023/02/18 01:08:36;;;;;;;16.67;14.15;;;;;;;12.89;73.80;100809.34;4992763;28;20683;-60
2023/02/18 01:11:05;;;;;;;16.67;14.77;;;;;;;12.87;74.14;100806.03;4987356;28;20050;-60
2023/02/18 01:13:34;;;;;;;18.35;14.15;;;;;;;12.87;73.63;100814.41;4994972;28;20061;-61
2023/02/18 01:16:01;;;;;;;17.33;14.27;;;;;;;12.77;73.30;100806.31;4994857;28;20483;-61
2023/02/18 01:18:28;;;;;;;18.25;14.23;;;;;;;12.77;74.21;100814.69;4991208;28;20282;-61
2023/02/18 01:20:56;;;;;;;16.63;14.25;;;;;;;12.79;73.94;100818.00;4986987;28;20076;-60
2023/02/18 01:23:24;;;;;;;19.02;14.32;;;;;;;12.79;74.69;100810.44;4985900;28;20069;-60
2023/02/18 01:25:51;;;;;;;17.80;14.27;;;;;;;12.71;75.22;100814.00;4984573;28;20065;-60
2023/02/18 01:28:20;;;;;;;17.17;14.32;;;;;;;12.71;74.56;100815.97;4985979;28;20066;-60
2023/02/18 01:30:52;;;;;;;17.45;13.48;;;;;;;12.74;74.16;100818.13;4986996;28;20633;-60
2023/02/18 01:33:19;;;;;;;15.40;12.50;;;;;;;12.74;74.02;100804.97;4993306;28;20062;-62
2023/02/18 01:35:47;;;;;;;15.18;13.52;;;;;;;12.71;74.79;100814.00;4994429;28;20050;-62
2023/02/18 01:38:14;;;;;;;13.50;12.10;;;;;;;12.77;75.09;100800.72;4994506;28;20442;-62
2023/02/18 01:40:46;;;;;;;16.23;13.50;;;;;;;12.66;74.79;100805.75;4993328;28;20050;-60
2023/02/18 01:43:16;;;;;;;16.55;13.15;;;;;;;12.67;74.51;100796.22;4985847;28;20110;-61
2023/02/18 01:46:08;;;;;;;16.00;12.75;;;;;;;12.67;74.91;100795.41;4988156;28;20061;-60
2023/02/18 01:48:39;;;;;;;16.88;12.88;;;;;;;12.68;74.84;100792.28;4990892;28;20054;-61
2023/02/18 01:51:11;;;;;;;13.50;12.10;;;;;;;12.70;74.99;100789.97;4993090;28;20054;-61
2023/02/18 01:53:47;;;;;;;16.77;12.70;;;;;;;12.63;74.97;100783.22;4986687;28;20065;-61
2023/02/18 01:56:21;;;;;;;16.80;13.98;;;;;;;12.58;74.63;100785.00;4985837;28;20062;-60
2023/02/18 01:58:49;;;;;;;17.27;13.38;;;;;;;12.47;75.71;100775.22;4986663;28;20058;-60
2023/02/18 02:01:23;;;;;;;18.38;15.05;;;;;;;12.48;75.71;100778.88;4993753;28;20051;-60
2023/02/18 02:03:50;;;;;;;17.55;13.57;;;;;;;12.59;75.53;100786.63;4994203;28;20403;-61
2023/02/18 02:06:19;;;;;;;15.52;13.43;;;;;;;12.61;75.35;100794.72;4993761;28;20050;-61
2023/02/18 02:08:49;;;;;;;15.90;12.85;;;;;;;12.63;75.16;100788.81;4991005;28;20061;-61
2023/02/18 02:11:24;;;;;;;16.20;13.60;;;;;;;12.58;75.07;100778.59;4986635;28;20057;-61
2023/02/18 02:14:06;;;;;;;15.68;13.07;;;;;;;12.56;75.28;100790.09;4993280;28;20415;-62
2023/02/18 02:16:42;;;;;;;15.85;13.18;;;;;;;12.57;75.42;100788.91;4985811;28;20487;-60
2023/02/18 02:19:38;;;;;;;16.52;13.77;;;;;;;12.53;75.00;100790.72;4982432;28;20054;-60
2023/02/18 02:22:44;;;;;;;15.23;13.25;;;;;;;12.58;74.75;100782.22;4986486;28;20053;-60
2023/02/18 02:25:27;;;;;;;14.73;13.23;;;;;;;12.56;74.98;100781.69;4966069;28;20783;-61
2023/02/18 02:28:40;;;;;;;15.30;13.07;;;;;;;12.64;74.74;100787.66;4973936;28;20066;-61
2023/02/18 02:31:37;;;;;;;16.20;13.00;;;;;;;12.51;75.50;100776.22;4889104;29;20210;-61
2023/02/18 02:34:33;;;;;;;16.00;12.95;;;;;;;12.52;74.79;100777.91;4981972;28;20487;-61
2023/02/18 02:37:08;;;;;;;13.93;11.20;;;;;;;12.58;74.56;100765.44;4985206;28;20053;-61
2023/02/18 02:39:43;;;;;;;13.07;11.68;;;;;;;12.48;74.83;100759.31;4985639;28;20058;-61
2023/02/18 02:42:30;;;;;;;13.48;11.23;;;;;;;12.46;74.59;100758.81;4986283;28;20050;-61
2023/02/18 02:45:06;;;;;;;14.20;12.00;;;;;;;12.36;73.98;100749.53;4989901;28;20047;-61
2023/02/18 02:47:43;;;;;;;13.95;10.85;;;;;;;12.41;74.80;100759.75;4993246;28;20054;-62
2023/02/18 02:50:20;;;;;;;13.00;11.57;;;;;;;12.39;74.56;100746.09;4993487;28;20483;-61
2023/02/18 02:52:52;;;;;;;12.50;11.00;;;;;;;12.46;74.27;100742.84;4993280;28;20148;-61
2023/02/18 02:55:22;;;;;;;12.73;10.60;;;;;;;12.52;73.70;100744.38;4984816;28;20061;-61
2023/02/18 02:57:51;;;;;;;12.60;10.43;;;;;;;12.57;73.85;100751.78;4986963;28;20153;-61
2023/02/18 03:00:30;;;;;;;11.48;9.77;;;;;;;12.62;74.00;100745.22;4993154;28;20046;-61
2023/02/18 03:03:17;;;;;;;11.63;10.13;;;;;;;12.63;73.42;100744.09;4993244;28;20054;-61
2023/02/18 03:06:01;;;;;;;12.18;9.27;;;;;;;12.63;73.27;100744.91;4986021;28;20050;-61
2023/02/18 03:08:45;;;;;;;11.30;9.52;;;;;;;12.67;72.57;100722.75;4983726;28;20053;-61
2023/02/18 03:11:14;;;;;;;11.75;9.52;;;;;;;12.65;73.05;100723.06;4990528;28;20061;-61
2023/02/18 03:13:57;;;;;;;11.93;9.35;;;;;;;12.61;72.93;100724.03;4992275;28;20046;-61
2023/02/18 03:16:36;;;;;;;10.48;9.38;;;;;;;12.64;73.33;100714.97;4992950;28;20051;-61
2023/02/18 03:19:12;;;;;;;9.50;8.18;;;;;;;12.55;72.75;100709.38;4992792;28;20483;-62
2023/02/18 03:21:44;;;;;;;10.70;8.93;;;;;;;12.58;72.97;100709.56;4992782;28;20077;-61
2023/02/18 03:24:16;;;;;;;9.82;8.60;;;;;;;12.61;73.35;100691.31;4988003;28;20057;-61
2023/02/18 03:26:48;;;;;;;9.75;8.68;;;;;;;12.62;73.37;100684.59;4986120;28;20058;-61
2023/02/18 03:29:19;;;;;;;10.95;9.50;;;;;;;12.52;72.85;100677.31;4993242;28;20059;-61
2023/02/18 03:31:50;;;;;;;9.57;8.27;;;;;;;12.53;73.54;100678.94;4992786;28;20472;-61
2023/02/18 03:34:24;;;;;;;11.05;9.30;;;;;;;12.50;73.59;100679.59;4989706;28;20050;-61
2023/02/18 03:36:55;;;;;;;9.48;8.38;;;;;;;12.46;73.56;100664.63;4984070;28;20054;-61
2023/02/18 03:39:25;;;;;;;11.60;9.40;;;;;;;12.42;74.14;100663.63;4990771;28;20494;-61
2023/02/18 03:41:53;;;;;;;10.68;9.30;;;;;;;12.46;74.11;100673.00;4991963;28;20061;-61
2023/02/18 03:44:20;;;;;;;11.30;9.85;;;;;;;12.47;74.46;100652.28;4987665;28;20054;-61
2023/02/18 03:46:48;;;;;;;11.38;8.80;;;;;;;12.42;74.95;100663.63;4985981;28;20058;-61
2023/02/18 03:49:15;;;;;;;13.93;10.55;;;;;;;12.35;75.12;100650.13;4986811;28;20058;-61
2023/02/18 03:51:43;;;;;;;11.05;9.05;;;;;;;12.33;75.80;100646.00;4986805;28;20042;-61
2023/02/18 03:54:13;;;;;;;10.40;8.90;;;;;;;12.34;76.14;100656.84;4988781;28;20054;-61
2023/02/18 03:56:41;;;;;;;;;;;;;;;12.26;76.08;100649.25;4991567;28;20058;-61
2023/02/18 03:59:08;;;;;;;10.65;8.30;;;;;;;12.25;76.32;100646.78;4996050;28;19921;-63
2023/02/18 04:01:35;;;;;;;10.20;8.25;;;;;;;12.17;76.22;100638.03;4995929;28;20046;-62
2023/02/18 04:04:03;;;;;;;10.02;7.40;;;;;;;12.22;76.59;100639.03;4996360;28;20054;-61
2023/02/18 04:06:30;;;;;;;9.52;7.03;;;;;;;12.18;76.61;100645.28;4991742;28;21023;-62
2023/02/18 04:08:57;;;;;;;9.32;7.35;;;;;;;12.23;76.29;100644.31;4987345;28;20056;-61
2023/02/18 04:11:26;;;;;;;8.98;6.88;;;;;;;12.21;76.54;100641.03;4993377;28;20525;-61
2023/02/18 04:13:53;;;;;;;12.00;7.53;;;;;;;12.14;77.07;100635.91;4992934;28;20059;-61
2023/02/18 04:16:20;;;;;;;9.05;7.20;;;;;;;12.06;77.71;100630.28;4989183;28;20392;-61
2023/02/18 04:18:48;;;;;;;10.55;7.22;;;;;;;12.15;77.69;100634.75;4995082;28;20058;-61
2023/02/18 04:21:15;;;;;;;9.18;6.93;;;;;;;12.22;77.69;100633.47;4995574;28;20495;-61
2023/02/18 04:23:42;;;;;;;9.85;7.47;;;;;;;12.19;77.38;100637.72;4995068;28;20057;-61
2023/02/18 04:26:09;;;;;;;9.85;7.30;;;;;;;12.21;77.28;100627.06;4986252;28;20061;-61
2023/02/18 04:28:38;;;;;;;9.25;6.20;;;;;;;12.23;76.72;100618.38;4988864;28;20050;-61
2023/02/18 04:31:05;;;;;;;7.38;5.68;;;;;;;12.28;77.01;100621.00;4993572;28;20054;-61
2023/02/18 04:33:32;;;;;;;8.27;5.93;;;;;;;12.23;76.83;100612.78;4995811;28;20054;-61
2023/02/18 04:35:59;;;;;;;7.57;5.68;;;;;;;12.24;76.76;100622.78;4987127;28;20057;-61
2023/02/18 04:38:27;;;;;;;7.47;5.00;;;;;;;12.25;76.88;100616.88;4991019;28;20054;-61
2023/02/18 04:40:54;;;;;;;7.13;5.22;;;;;;;12.27;76.91;100609.00;4994439;28;20475;-61
2023/02/18 04:43:21;;;;;;;7.38;5.47;;;;;;;12.29;77.11;100608.69;4995682;28;20058;-61
2023/02/18 04:45:51;;;;;;;6.78;4.60;;;;;;;12.31;76.43;100598.84;4990830;28;20419;-61
2023/02/18 04:48:18;;;;;;;6.57;4.40;;;;;;;12.27;76.55;100591.44;4985670;28;20411;-61
2023/02/18 04:50:45;;;;;;;6.35;4.28;;;;;;;12.35;76.26;100590.66;4987005;28;20047;-61
2023/02/18 04:53:12;;;;;;;3.97;3.17;;;;;;;12.26;76.09;100573.03;4986248;28;20054;-61
2023/02/18 04:55:40;;;;;;;3.60;2.90;;;;;;;12.17;76.25;100598.13;4995247;28;20443;-61
2023/02/18 04:58:08;;;;;;;3.55;2.50;;;;;;;12.21;76.17;100578.78;4995188;28;20054;-61
2023/02/18 05:00:36;;;;;;;3.90;2.43;;;;;;;12.16;76.39;100574.97;4994999;28;20415;-61
2023/02/18 05:03:04;;;;;;;4.25;2.67;;;;;;;12.25;76.64;100576.97;4989276;28;20049;-61
2023/02/18 05:05:32;;;;;;;3.25;2.42;;;;;;;12.27;76.23;100574.69;4987743;28;20061;-61
2023/02/18 05:07:59;;;;;;;3.17;2.10;;;;;;;12.13;77.18;100572.81;4989337;28;20062;-61
2023/02/18 05:10:26;;;;;;;2.60;2.10;;;;;;;12.18;77.72;100572.69;4994794;28;20058;-61
2023/02/18 05:12:53;;;;;;;2.70;1.98;;;;;;;12.17;77.81;100573.81;4990203;28;20058;-61
2023/02/18 05:15:21;;;;;;;3.20;1.90;;;;;;;12.19;78.20;100557.56;4992489;28;20418;-61
2023/02/18 05:17:48;;;;;;;3.55;1.83;;;;;;;12.23;77.83;100562.50;4994914;28;20085;-61
2023/02/18 05:20:19;;;;;;;2.92;1.60;;;;;;;12.22;78.26;100564.50;4994984;28;20054;-61
2023/02/18 05:22:46;;;;;;;2.83;1.70;;;;;;;12.15;78.36;100562.13;4991444;28;20042;-61
2023/02/18 05:25:13;;;;;;;2.10;1.40;;;;;;;12.11;78.57;100560.31;4989300;28;20053;-61
2023/02/18 05:27:40;;;;;;;3.13;1.55;;;;;;;12.04;78.88;100555.22;4994262;28;20424;-62
2023/02/18 05:30:09;;;;;;;2.28;1.48;;;;;;;12.07;78.81;100556.53;4994474;28;20058;-61
2023/02/18 05:32:36;;;;;;;3.78;1.50;;;;;;;11.97;79.04;100543.69;4992602;28;20474;-60
2023/02/18 05:35:03;;;;;;;1.70;1.10;;;;;;;11.94;79.29;100544.31;4983298;28;20058;-61
2023/02/18 05:37:32;;;;;;;1.92;1.20;;;;;;;11.95;79.28;100541.22;4988273;28;20058;-61
2023/02/18 05:39:59;;;;;;;1.73;1.08;;;;;;;12.01;79.38;100541.06;4986332;28;20562;-61
2023/02/18 05:42:26;;;;;;;1.40;0.85;;;;;;;11.98;78.72;100540.56;4987146;28;20054;-61
2023/02/18 05:44:54;;;;;;;1.35;0.80;;;;;;;11.99;78.57;100530.25;4983112;28;20055;-61
2023/02/18 05:47:21;;;;;;;1.23;0.70;;;;;;;11.97;79.12;100538.13;4984178;28;20046;-61
2023/02/18 05:49:49;;;;;;;2.10;0.60;;;;;;;12.01;78.45;100522.38;4987332;28;20081;-61
2023/02/18 05:52:17;;;;;;;1.60;0.70;;;;;;;12.02;78.23;100517.59;4994085;28;20168;-62
2023/02/18 05:54:46;;;;;;;1.55;0.75;;;;;;;12.03;77.99;100514.47;4994127;28;20061;-61
2023/02/18 05:57:14;;;;;;;1.30;0.68;;;;;;;12.05;78.24;100505.78;4993763;28;20514;-62
2023/02/18 05:59:42;;;;;;;1.10;0.70;;;;;;;12.02;77.92;100495.25;4991538;28;20518;-61
2023/02/18 06:02:09;;;;;;;1.10;0.70;;;;;;;12.02;78.14;100490.50;4985923;28;20050;-61
2023/02/18 06:04:36;;;;;;;1.42;0.60;;;;;;;11.96;78.18;100491.78;4986920;28;20053;-62
2023/02/18 06:07:04;;;;;;;1.20;0.60;;;;;;;11.88;78.08;100492.56;4993500;28;20054;-62
2023/02/18 06:09:31;;;;;;;1.67;0.60;;;;;;;11.97;78.06;100482.28;4993653;28;20061;-62
2023/02/18 06:11:59;;;;;;;2.47;0.70;;;;;;;11.87;77.88;100491.72;4986377;28;20058;-62
2023/02/18 06:14:27;;;;;;;1.25;0.65;;;;;;;11.77;78.17;100487.25;4993453;28;20050;-63
2023/02/18 06:16:54;;;;;;;2.03;1.20;;;;;;;11.67;78.71;100484.75;4993325;28;20058;-62
2023/02/18 06:19:21;;;;;;;1.65;0.90;;;;;;;11.83;78.71;100485.16;4992540;28;20414;-62
2023/02/18 06:21:48;;;;;;;1.48;0.80;;;;;;;11.83;78.48;100481.53;4985171;28;20073;-62
2023/02/18 06:24:16;;;;;;;1.10;0.68;;;;;;;11.89;78.46;100477.50;4986705;28;20411;-62
2023/02/18 06:26:43;;;;;;;1.40;0.90;;;;;;;11.85;78.84;100479.25;4982238;28;20063;-61
2023/02/18 06:29:12;;;;;;;1.40;0.80;;;;;;;11.76;79.20;100463.31;4985797;28;20050;-61
2023/02/18 06:31:39;;;;;;;1.67;1.08;;;;;;;11.78;79.09;100465.78;4984940;28;20054;-62
2023/02/18 06:34:06;;;;;;;1.98;1.10;;;;;;;11.84;78.91;100458.06;4988551;28;20077;-61
2023/02/18 06:36:33;;;;;;;1.80;0.90;;;;;;;11.84;79.26;100455.25;4985106;28;20488;-60
2023/02/18 06:39:03;;;;;;;2.40;1.10;;;;;;;11.71;79.54;100468.19;4984163;28;20054;-61
2023/02/18 06:41:30;;;;;;;;;;;;;;;11.81;79.22;100467.09;4987620;28;20415;-65
2023/02/18 06:43:57;;;;;;;1.50;0.90;;;;;;;11.72;79.45;100465.09;4986527;28;19929;-61
2023/02/18 06:46:26;;;;;;;1.77;0.90;;;;;;;11.74;79.73;100460.00;4985828;28;20419;-61
2023/02/18 06:48:53;;;;;;;2.72;1.45;;;;;;;11.72;80.08;100475.44;4986846;28;20054;-61
2023/02/18 06:51:20;;;;;;;1.60;1.10;;;;;;;11.84;79.98;100472.00;4988509;28;20053;-61
2023/02/18 06:53:48;;;;;;;1.77;1.10;;;;;;;11.67;80.34;100469.97;4989044;28;20042;-61
2023/02/18 06:56:15;;;;;;;2.15;1.25;;;;;;;11.67;80.61;100473.59;4984939;28;20442;-62
2023/02/18 06:58:42;;;;;;;2.25;1.38;;;;;;;11.73;80.43;100472.31;4985615;28;20538;-62
2023/02/18 07:01:09;;;;;;;2.35;1.40;;;;;;;11.78;80.20;100469.38;4986314;28;20050;-61
2023/02/18 07:03:38;;;;;;;2.42;1.30;;;;;;;11.80;80.40;100469.06;4986155;28;20058;-60
2023/02/18 07:06:06;;;;;;;2.88;1.40;;;;;;;11.81;80.34;100472.69;4985637;28;20053;-62
2023/02/18 07:08:35;;;;;;;2.20;1.30;;;;;;;11.79;80.15;100475.78;4983455;28;20061;-60
2023/02/18 07:11:02;;;;;;;2.58;1.33;;;;;;;11.86;79.75;100464.94;4984329;28;20393;-60
2023/02/18 07:13:29;;;;;;;2.30;1.67;;;;;;;11.82;79.19;100465.94;4985672;28;20057;-60
2023/02/18 07:15:56;;;;;;;3.42;1.45;;;;;;;11.78;79.51;100468.56;4986293;28;20054;-60
2023/02/18 07:18:23;;;;;;;1.77;1.33;;;;;;;11.85;79.15;100479.25;4983216;28;20495;-60
2023/02/18 07:20:52;;;;;;;1.67;1.10;;;;;;;11.85;79.13;100482.03;4987310;28;20050;-60
2023/02/18 07:23:19;;;;;;;2.10;1.52;;;;;;;11.84;79.33;100463.63;4990465;28;20058;-61
2023/02/18 07:25:47;;;;;;;2.10;1.50;;;;;;;11.92;79.12;100476.84;4995647;28;20057;-60
2023/02/18 07:28:14;;;;;;;2.63;1.70;;;;;;;11.90;78.52;100463.19;4990743;28;20050;-61
2023/02/18 07:30:41;;;;;;;2.30;1.67;;;;;;;11.91;78.68;100466.84;4988483;28;20055;-61
2023/02/18 07:33:08;;;;;;;3.38;2.20;;;;;;;11.94;78.71;100477.34;4993087;28;20051;-61
2023/02/18 07:35:35;;;;;;;3.28;2.60;;;;;;;11.89;78.29;100485.88;4987357;28;20494;-61
2023/02/18 07:38:04;;;;;;;3.08;2.70;;;;;;;11.87;78.40;100482.53;4990835;28;20410;-61
2023/02/18 07:40:31;;;;;;;4.35;3.03;;;;;;;11.91;77.88;100486.38;4993365;28;20057;-62
2023/02/18 07:42:59;;;;;;;4.25;2.97;;;;;;;11.84;77.72;100522.25;4994244;28;20061;-61
2023/02/18 07:45:26;;;;;;;3.47;3.00;;;;;;;11.70;77.87;100500.84;4988772;28;20406;-61
2023/02/18 07:47:53;;;;;;;3.35;3.05;;;;;;;11.78;78.24;100500.06;4988915;28;20070;-61
2023/02/18 07:50:20;;;;;;;3.40;3.10;;;;;;;11.88;77.99;100509.28;4988807;28;20054;-61
2023/02/18 07:52:48;;;;;;;3.63;2.72;;;;;;;11.89;77.69;100499.81;4994473;28;20112;-62
2023/02/18 07:55:16;;;;;;;3.70;2.97;;;;;;;11.94;77.54;100494.09;4993631;28;20050;-60
2023/02/18 07:57:59;;;;;;;4.65;2.97;;;;;;;11.87;77.50;100499.28;4994047;28;20058;-60
2023/02/18 08:00:26;;;;;;;3.47;2.20;;;;;;;11.81;77.57;100511.75;4987320;28;20066;-60
2023/02/18 08:02:53;;;;;;;4.35;2.58;;;;;;;11.77;77.58;100509.56;4993483;28;20065;-61
2023/02/18 08:05:21;;;;;;;5.60;3.92;;;;;;;11.78;77.53;100513.22;4988391;28;20046;-62
2023/02/18 08:07:48;;;;;;;4.43;2.97;;;;;;;11.77;77.40;100505.97;4995737;28;20066;-60
2023/02/18 08:10:16;;;;;;;4.50;2.80;;;;;;;11.84;77.13;100511.09;4992968;28;20533;-61
2023/02/18 08:12:44;;;;;;;3.47;2.28;;;;;;;11.90;76.80;100509.81;4993814;28;20104;-61
2023/02/18 08:15:14;;;;;;;3.45;2.20;;;;;;;11.97;75.86;100516.59;4989825;28;20054;-62
2023/02/18 08:17:41;;;;;;;2.35;1.95;;;;;;;11.98;75.74;100539.75;4989995;28;20376;-61
2023/02/18 08:20:09;;;;;;;2.47;1.77;;;;;;;11.96;74.77;100514.94;4992056;28;20414;-60
2023/02/18 08:22:36;;;;;;;2.13;1.60;;;;;;;11.95;74.27;100532.03;4990113;28;20475;-60
2023/02/18 08:25:04;;;;;;;3.08;2.00;;;;;;;12.01;74.45;100515.94;4987908;28;20058;-61
2023/02/18 08:27:33;;;;;;;2.40;1.77;;;;;;;12.02;73.76;100524.00;4993774;28;20054;-61
2023/02/18 08:30:00;;;;;;;3.17;1.80;;;;;;;12.06;73.61;100529.78;4992587;28;20042;-61
2023/02/18 08:32:28;;;;;;;2.33;1.60;;;;;;;12.08;73.61;100533.06;4986265;28;20502;-61
2023/02/18 08:34:56;;;;;;;2.45;1.55;;;;;;;12.27;72.83;100524.41;4984798;28;20046;-62
2023/02/18 08:37:24;;;;;;;2.38;1.67;;;;;;;12.32;72.73;100532.63;4990965;28;20050;-61
2023/02/18 08:39:52;;;;;;;2.35;1.35;;;;;;;12.21;72.90;100522.91;4993110;28;20050;-60
2023/02/18 08:42:19;;;;;;;2.50;1.58;;;;;;;12.27;72.96;100530.00;4985802;28;20057;-60
2023/02/18 08:44:58;;;;;;;2.97;1.60;;;;;;;12.35;73.07;100543.16;4995042;28;20050;-60
2023/02/18 08:47:25;;;;;;;3.43;1.57;;;;;;;12.44;72.14;100538.41;4993686;28;20069;-61
2023/02/18 08:49:53;;;;;;;2.00;1.33;;;;;;;12.28;71.67;100559.56;4991874;28;20054;-61
2023/02/18 08:52:20;;;;;;;1.83;1.27;;;;;;;12.36;72.22;100534.44;4987367;28;20051;-61
2023/02/18 08:54:50;;;;;;;2.00;1.20;;;;;;;12.32;72.43;100541.00;4987689;28;20046;-61
2023/02/18 08:57:18;;;;;;;2.97;1.40;;;;;;;12.18;72.91;100532.78;4987365;28;20072;-61
2023/02/18 08:59:45;;;;;;;1.77;1.08;;;;;;;12.21;72.63;100525.72;4982210;28;20062;-61
2023/02/18 09:02:15;;;;;;;5.47;1.05;;;;;;;12.24;71.68;100536.22;4984860;28;20046;-61
2023/02/18 09:04:42;;;;;;;;;;;;;;;12.11;71.51;100541.59;4984069;28;20625;-61
2023/02/18 09:07:09;;;;;;;3.45;1.10;;;;;;;12.00;70.53;100523.50;4985891;28;19929;-61
2023/02/18 09:09:36;;;;;;;2.00;1.30;;;;;;;12.09;70.22;100523.53;4985563;28;20442;-61
2023/02/18 09:12:04;;;;;;;2.08;1.20;;;;;;;12.11;69.62;100516.47;4990906;28;20046;-62
2023/02/18 09:14:31;;;;;;;3.97;1.27;;;;;;;12.07;68.43;100526.63;4986290;28;20046;-61
2023/02/18 09:16:58;;;;;;;3.25;1.33;;;;;;;12.09;68.19;100521.53;4986155;28;20654;-61
2023/02/18 09:19:27;;;;;;;3.42;1.60;;;;;;;12.20;67.90;100519.31;4993371;28;20054;-61
2023/02/18 09:21:56;;;;;;;3.15;1.48;;;;;;;12.32;68.05;100505.50;4993392;28;20077;-61
2023/02/18 09:24:24;;;;;;;2.40;1.40;;;;;;;12.33;66.76;100523.13;4992384;28;20062;-61
2023/02/18 09:26:51;;;;;;;4.78;2.00;;;;;;;12.27;67.05;100499.28;4987750;28;20058;-62
2023/02/18 09:29:19;;;;;;;3.38;1.83;;;;;;;12.24;66.83;100508.28;4985471;28;20050;-61
2023/02/18 09:31:46;;;;;;;4.47;1.95;;;;;;;12.21;66.91;100520.94;4985462;28;20065;-61
2023/02/18 09:34:14;;;;;;;4.25;1.48;;;;;;;12.17;66.86;100517.16;4984408;28;20054;-62
2023/02/18 09:36:42;;;;;;;3.03;1.70;;;;;;;12.19;67.01;100518.47;4986861;28;20050;-61
2023/02/18 09:39:11;;;;;;;4.90;1.90;;;;;;;12.19;66.88;100517.66;4979906;28;20062;-60
2023/02/18 09:41:43;;;;;;;5.70;2.15;;;;;;;12.22;67.34;100530.97;4988031;28;20491;-60
2023/02/18 09:44:14;;;;;;;3.65;2.03;;;;;;;12.02;67.58;100524.00;4988105;28;20053;-61
2023/02/18 09:46:49;;;;;;;4.88;2.00;;;;;;;12.01;68.02;100515.94;4987834;28;20506;-60
2023/02/18 09:49:19;;;;;;;4.03;1.58;;;;;;;11.96;67.60;100523.31;4983827;28;20054;-59
2023/02/18 09:51:50;;;;;;;3.33;1.77;;;;;;;11.97;67.86;100526.94;4989641;28;20046;-58
2023/02/18 09:54:19;;;;;;;4.03;2.03;;;;;;;11.96;67.79;100519.72;4987512;28;20054;-58
2023/02/18 09:56:47;;;;;;;4.77;2.13;;;;;;;11.98;67.98;100518.22;4993531;28;20108;-59
2023/02/18 09:59:18;;;;;;;6.10;2.27;;;;;;;12.02;67.51;100500.84;4992368;28;20509;-59
2023/02/18 10:01:47;;;;;;;7.47;2.20;;;;;;;11.83;67.20;100492.72;4985477;28;20069;-59
2023/02/18 10:04:23;;;;;;;8.82;2.85;;;;;;;11.84;67.47;100494.34;4987291;28;20054;-59
2023/02/18 10:06:53;;;;;;;4.20;1.98;;;;;;;11.95;67.38;100484.56;4984487;28;20061;-59
2023/02/18 10:09:22;;;;;;;8.10;2.58;;;;;;;11.97;67.81;100487.88;4986031;28;20065;-64
2023/02/18 10:11:52;;;;;;;7.60;3.00;;;;;;;11.94;67.41;100496.88;4977428;28;20058;-63
2023/02/18 10:14:20;;;;;;;6.65;2.97;;;;;;;11.72;68.36;100497.75;4979616;28;20405;-63
2023/02/18 10:16:50;;;;;;;5.95;2.80;;;;;;;11.96;67.94;100503.78;4980172;28;20042;-63
2023/02/18 10:19:23;;;;;;;6.53;3.33;;;;;;;12.01;67.61;100525.16;4986111;28;20081;-64
2023/02/18 10:21:54;;;;;;;10.98;3.95;;;;;;;11.81;69.12;100522.91;4983903;28;20708;-63
2023/02/18 10:24:29;;;;;;;6.03;3.05;;;;;;;11.64;71.00;100521.66;4985628;28;20472;-64
2023/02/18 10:26:57;;;;;;;8.30;3.33;;;;;;;11.63;71.07;100506.06;4984447;28;20061;-64
2023/02/18 10:29:25;;;;;;;8.90;3.75;;;;;;;11.71;70.87;100502.50;4985606;28;20050;-64
2023/02/18 10:31:57;;;;;;;7.95;3.88;;;;;;;11.89;71.14;100500.63;4982060;28;20051;-63
2023/02/18 10:34:36;;;;;;;7.25;3.67;;;;;;;11.90;71.07;100515.41;4982155;28;20057;-64
2023/02/18 10:37:12;;;;;;;10.93;5.13;;;;;;;11.68;71.53;100514.31;4990261;28;20050;-64
2023/02/18 10:39:53;;;;;;;10.80;5.05;;;;;;;11.54;73.00;100508.81;4989690;28;20404;-63
2023/02/18 10:42:33;;;;;;;9.05;4.03;;;;;;;11.67;73.35;100523.00;4989207;28;20050;-64
2023/02/18 10:45:13;;;;;;;7.47;4.07;;;;;;;11.75;73.34;100525.81;4988297;28;21670;-64
2023/02/18 10:47:48;;;;;;;6.95;4.30;;;;;;;11.62;73.59;100515.59;4984077;28;20082;-63
2023/02/18 10:50:26;;;;;;;8.73;4.40;;;;;;;11.56;72.86;100517.69;4989264;28;20495;-64
2023/02/18 10:53:02;;;;;;;7.03;4.30;;;;;;;11.63;73.65;100520.00;4987578;28;20050;-64
2023/02/18 10:55:38;;;;;;;8.40;3.92;;;;;;;11.63;72.75;100524.78;4989608;28;20054;-64
2023/02/18 10:58:25;;;;;;;7.40;3.85;;;;;;;11.82;72.90;100524.53;4992233;28;20061;-63
2023/02/18 11:00:53;;;;;;;9.20;4.03;;;;;;;11.78;73.20;100516.00;4992944;28;20054;-64
2023/02/18 11:03:22;;;;;;;7.93;4.25;;;;;;;11.70;73.12;100522.38;4990252;28;20049;-64
2023/02/18 11:05:52;;;;;;;6.93;4.25;;;;;;;11.77;73.45;100531.91;4984314;28;20518;-65
2023/02/18 11:08:25;;;;;;;6.30;4.07;;;;;;;11.64;74.12;100529.22;4983820;28;20444;-64
2023/02/18 11:10:53;;;;;;;9.18;5.10;;;;;;;11.75;74.04;100527.78;4982738;28;20065;-63
2023/02/18 11:13:26;;;;;;;9.43;4.05;;;;;;;11.57;75.10;100543.63;4981780;28;20406;-63
2023/02/18 11:16:01;;;;;;;10.10;4.40;;;;;;;11.60;75.08;100520.66;4986521;28;20061;-63
2023/02/18 11:18:37;;;;;;;13.00;5.18;;;;;;;11.52;75.97;100532.59;4987146;28;20479;-63
2023/02/18 11:21:18;;;;;;;6.68;3.90;;;;;;;11.51;75.85;100553.28;4987822;28;20483;-63
2023/02/18 11:23:49;;;;;;;8.77;3.70;;;;;;;11.75;75.71;100550.94;4985094;28;20054;-63
2023/02/18 11:26:21;;;;;;;6.82;3.90;;;;;;;11.78;75.66;100538.34;4985807;28;20427;-64
2023/02/18 11:28:56;;;;;;;7.20;3.38;;;;;;;11.91;75.57;100540.22;4992812;28;20061;-64
2023/02/18 11:31:27;;;;;;;7.57;3.35;;;;;;;11.89;75.64;100541.69;4992757;28;20046;-65
2023/02/18 11:33:57;;;;;;;7.82;3.95;;;;;;;11.74;74.96;100531.75;4990968;28;20051;-64
2023/02/18 11:36:28;;;;;;;7.57;3.50;;;;;;;11.75;75.21;100525.81;4993066;28;20050;-59